Time;durP1;ratioP1;P1;durP2;ratioP2;P2;SDS_P1;SDS_P2;PMS_P1;PMS_P2;Temp;Humidity;BMP_temperature;BMP_pressure;BME280_temperature;BME280_humidity;BME280_pressure;Samples;Min_cycle;Max_cycle;Signal;HPM_P1;HPM_P2
2023/10/05 00:02:10;;;;;;;;;;;;;;;12.74;73.76;101442.73;106183;1259;61312;-81
2023/10/05 00:04:41;;;;;;;;;;;;;;;12.73;73.66;101438.13;106356;1259;61263;-81
2023/10/05 00:07:10;;;;;;;;;;;;;;;12.74;73.72;101437.25;106344;1275;124624;-81
2023/10/05 00:09:38;;;;;;;;;;;;;;;12.74;73.67;101434.43;106578;1259;65063;-81
2023/10/05 00:12:07;;;;;;;;;;;;;;;12.74;73.76;101433.74;106188;1259;124753;-82
2023/10/05 00:14:37;;;;;;;;;;;;;;;12.74;73.78;101430.75;106298;1265;61308;-81
2023/10/05 00:17:08;;;;;;;;;;;;;;;12.74;73.69;101430.04;106330;1259;61198;-81
2023/10/05 00:19:38;;;;;;;;;;;;;;;12.73;73.71;101428.42;106266;1264;124104;-81
2023/10/05 00:22:05;;;;;;;;;;;;;;;12.72;73.76;101428.92;106339;1259;66287;-81
2023/10/05 00:24:37;;;;;;;;;;;;;;;12.71;73.79;101428.02;106339;1259;124599;-81
2023/10/05 00:27:10;;;;;;;;;;;;;;;12.69;73.79;101429.39;106480;1260;61250;-81
2023/10/05 00:29:47;;;;;;;;;;;;;;;12.70;73.83;101427.81;106189;1259;124365;-82
2023/10/05 00:32:19;;;;;;;;;;;;;;;12.70;73.91;101425.53;106255;1261;74449;-82
2023/10/05 00:34:51;;;;;;;;;;;;;;;12.69;73.74;101419.86;106120;1259;64429;-81
2023/10/05 00:37:19;;;;;;;;;;;;;;;12.68;73.91;101415.09;106100;1258;124635;-81
2023/10/05 00:39:48;;;;;;;;;;;;;;;12.67;74.00;101411.36;106336;1260;61355;-81
2023/10/05 00:42:16;;;;;;;;;;;;;;;12.67;73.94;101407.13;106190;1259;125435;-81
2023/10/05 00:44:43;;;;;;;;;;;;;;;12.68;74.05;101401.17;106295;1259;74653;-81
2023/10/05 00:47:13;;;;;;;;;;;;;;;12.69;74.12;101395.02;106327;1259;66541;-81
2023/10/05 00:50:01;;;;;;;;;;;;;;;12.68;74.19;101391.67;106188;1263;125414;-81
2023/10/05 00:52:28;;;;;;;;;;;;;;;12.70;74.04;101388.02;106085;1259;61276;-81
2023/10/05 00:54:56;;;;;;;;;;;;;;;12.71;74.10;101384.52;106208;1258;125248;-82
2023/10/05 00:57:24;;;;;;;;;;;;;;;12.71;74.07;101376.79;106212;1259;74657;-82
2023/10/05 01:02:36;;;;;;;;;;;;;;;12.72;74.12;101373.98;106234;1264;72663;-82
2023/10/05 01:05:16;;;;;;;;;;;;;;;12.73;74.14;101374.02;106348;1259;59714;-82
2023/10/05 01:07:43;;;;;;;;;;;;;;;12.74;74.07;101374.20;106339;1259;61263;-82
2023/10/05 01:12:43;;;;;;;;;;;;;;;12.74;74.06;101370.17;106284;1263;125043;-82
2023/10/05 01:15:15;;;;;;;;;;;;;;;12.73;74.10;101366.96;106199;1259;72758;-82
2023/10/05 01:17:41;;;;;;;;;;;;;;;12.73;74.06;101363.27;106142;1259;125208;-82
2023/10/05 01:20:12;;;;;;;;;;;;;;;12.73;74.16;101360.10;106356;1263;61338;-81
2023/10/05 01:22:39;;;;;;;;;;;;;;;12.71;74.03;101354.24;106377;1259;74474;-80
2023/10/05 01:25:12;;;;;;;;;;;;;;;12.69;74.05;101353.29;106202;1259;125403;-81
2023/10/05 01:27:40;;;;;;;;;;;;;;;12.64;74.06;101352.31;106131;1265;72398;-80
2023/10/05 01:30:12;;;;;;;;;;;;;;;12.62;74.11;101350.85;106229;1258;125646;-80
2023/10/05 01:32:42;;;;;;;;;;;;;;;12.61;74.24;101353.64;106655;1258;61251;-80
2023/10/05 01:35:08;;;;;;;;;;;;;;;12.61;74.17;101353.80;106257;1259;74794;-81
2023/10/05 01:37:36;;;;;;;;;;;;;;;12.59;74.12;101350.58;106231;1263;124445;-82
2023/10/05 01:40:12;;;;;;;;;;;;;;;12.58;74.23;101349.67;106368;1262;71398;-82
2023/10/05 01:42:40;;;;;;;;;;;;;;;12.57;74.26;101346.48;106268;1263;124296;-82
2023/10/05 01:45:07;;;;;;;;;;;;;;;12.57;74.38;101341.72;106974;1259;61461;-82
2023/10/05 01:47:34;;;;;;;;;;;;;;;12.56;74.40;101335.55;106203;1263;124447;-82
2023/10/05 01:50:00;;;;;;;;;;;;;;;12.56;74.42;101332.18;106390;1259;66250;-82
2023/10/05 01:52:27;;;;;;;;;;;;;;;12.55;74.38;101326.88;106362;1260;61779;-82
2023/10/05 01:54:54;;;;;;;;;;;;;;;12.54;74.52;101320.53;106313;1258;124891;-82
2023/10/05 01:57:20;;;;;;;;;;;;;;;12.55;74.53;101315.09;106393;1260;61279;-82
2023/10/05 01:59:47;;;;;;;;;;;;;;;12.55;74.60;101305.42;106256;1259;124415;-81
2023/10/05 02:02:15;;;;;;;;;;;;;;;12.55;74.61;101302.59;106289;1265;66152;-81
2023/10/05 02:04:48;;;;;;;;;;;;;;;12.54;74.66;101300.64;106398;1261;72671;-81
2023/10/05 02:07:15;;;;;;;;;;;;;;;12.55;74.62;101302.05;106179;1263;125059;-81
2023/10/05 02:09:42;;;;;;;;;;;;;;;12.56;74.66;101299.61;106283;1259;59470;-81
2023/10/05 02:12:09;;;;;;;;;;;;;;;12.57;74.71;101299.30;106087;1262;125452;-81
2023/10/05 02:14:41;;;;;;;;;;;;;;;12.59;74.77;101296.36;106221;1265;66264;-81
2023/10/05 02:17:13;;;;;;;;;;;;;;;12.60;74.73;101296.75;106269;1260;72467;-81
2023/10/05 02:19:41;;;;;;;;;;;;;;;12.61;74.82;101287.63;106467;1260;125068;-81
2023/10/05 02:22:11;;;;;;;;;;;;;;;12.63;74.79;101286.43;106329;1260;60892;-81
2023/10/05 02:24:40;;;;;;;;;;;;;;;12.67;74.72;101285.63;106246;1260;124939;-80
2023/10/05 02:27:14;;;;;;;;;;;;;;;12.68;74.78;101290.94;106290;1259;66741;-81
2023/10/05 02:29:45;;;;;;;;;;;;;;;12.69;74.90;101292.19;106164;1261;125358;-81
2023/10/05 02:32:15;;;;;;;;;;;;;;;12.69;74.75;101287.78;106329;1260;61200;-81
2023/10/05 02:34:44;;;;;;;;;;;;;;;12.70;74.81;101283.42;106372;1259;61270;-81
2023/10/05 02:37:11;;;;;;;;;;;;;;;12.70;74.82;101277.79;106330;1259;125451;-81
2023/10/05 02:39:38;;;;;;;;;;;;;;;12.69;74.79;101277.77;106241;1261;64905;-81
2023/10/05 02:42:06;;;;;;;;;;;;;;;12.69;74.71;101275.11;106156;1260;125189;-81
2023/10/05 02:44:35;;;;;;;;;;;;;;;12.70;74.75;101272.86;106456;1259;61287;-81
2023/10/05 02:47:03;;;;;;;;;;;;;;;12.70;74.82;101261.59;106455;1262;61301;-80
2023/10/05 02:49:30;;;;;;;;;;;;;;;12.70;74.70;101259.30;106264;1259;125021;-80
2023/10/05 02:51:57;;;;;;;;;;;;;;;12.69;74.87;101254.52;106433;1259;64771;-80
2023/10/05 02:54:24;;;;;;;;;;;;;;;12.70;74.86;101252.45;106462;1263;124912;-80
2023/10/05 02:56:53;;;;;;;;;;;;;;;12.70;74.77;101253.30;106225;1260;61270;-80
2023/10/05 02:59:24;;;;;;;;;;;;;;;12.69;74.79;101255.91;106215;1261;126350;-80
2023/10/05 03:01:53;;;;;;;;;;;;;;;12.66;74.84;101255.34;106305;1259;74594;-81
2023/10/05 03:04:23;;;;;;;;;;;;;;;12.63;74.82;101251.22;106394;1263;65944;-80
2023/10/05 03:06:52;;;;;;;;;;;;;;;12.58;74.80;101249.70;106191;1264;124374;-80
2023/10/05 03:09:21;;;;;;;;;;;;;;;12.53;74.87;101246.04;108150;1259;61353;-80
2023/10/05 03:11:49;;;;;;;;;;;;;;;12.49;75.08;101242.77;106217;1259;125107;-81
2023/10/05 03:14:17;;;;;;;;;;;;;;;12.43;75.00;101236.45;106224;1265;74484;-79
2023/10/05 03:16:44;;;;;;;;;;;;;;;12.39;74.97;101235.99;106217;1261;66102;-80
2023/10/05 03:19:18;;;;;;;;;;;;;;;12.35;75.17;101231.84;106078;1265;125640;-81
2023/10/05 03:21:45;;;;;;;;;;;;;;;12.32;75.20;101225.45;106132;1259;59491;-81
2023/10/05 03:24:14;;;;;;;;;;;;;;;12.28;75.34;101217.95;106192;1259;125097;-81
2023/10/05 03:26:41;;;;;;;;;;;;;;;12.27;75.38;101217.91;106469;1261;74702;-81
2023/10/05 03:29:11;;;;;;;;;;;;;;;12.27;75.46;101212.10;106301;1259;63791;-81
2023/10/05 03:31:43;;;;;;;;;;;;;;;12.24;75.47;101205.20;106308;1259;124846;-82
2023/10/05 03:34:10;;;;;;;;;;;;;;;12.22;75.46;101196.00;106605;1261;61381;-80
2023/10/05 03:36:36;;;;;;;;;;;;;;;12.21;75.69;101195.06;106153;1260;125182;-80
2023/10/05 03:39:06;;;;;;;;;;;;;;;12.18;75.59;101190.77;106184;1260;74689;-81
2023/10/05 03:41:34;;;;;;;;;;;;;;;12.16;75.66;101186.16;106170;1262;126012;-80
2023/10/05 03:44:03;;;;;;;;;;;;;;;12.15;75.67;101183.49;106219;1262;71046;-80
2023/10/05 03:46:30;;;;;;;;;;;;;;;12.14;75.76;101177.29;106294;1262;61152;-80
2023/10/05 03:49:00;;;;;;;;;;;;;;;12.13;75.83;101174.99;106223;1261;125738;-79
2023/10/05 03:51:28;;;;;;;;;;;;;;;12.14;75.88;101175.00;106193;1261;73426;-85
2023/10/05 03:53:55;;;;;;;;;;;;;;;12.13;75.97;101175.71;106075;1262;125250;-84
2023/10/05 03:56:25;;;;;;;;;;;;;;;12.13;75.99;101174.83;106304;1262;71959;-82
2023/10/05 03:58:55;;;;;;;;;;;;;;;12.14;76.00;101169.55;106335;1261;61326;-84
2023/10/05 04:01:24;;;;;;;;;;;;;;;12.14;76.04;101166.05;106148;1261;126261;-80
2023/10/05 04:03:50;;;;;;;;;;;;;;;12.13;76.07;101171.98;106138;1261;74698;-79
2023/10/05 04:06:17;;;;;;;;;;;;;;;12.11;76.14;101166.14;106110;1262;125785;-82
2023/10/05 04:08:48;;;;;;;;;;;;;;;12.10;76.09;101164.01;106277;1261;71418;-81
2023/10/05 04:11:15;;;;;;;;;;;;;;;12.11;76.18;101159.63;105614;1261;61139;-80
2023/10/05 04:13:41;;;;;;;;;;;;;;;12.12;76.30;101157.54;105722;1262;61352;-80
2023/10/05 04:16:13;;;;;;;;;;;;;;;12.12;76.24;101162.48;105543;1263;61259;-79
2023/10/05 04:18:40;;;;;;;;;;;;;;;12.13;76.26;101161.44;105532;1261;124990;-79
2023/10/05 04:21:06;;;;;;;;;;;;;;;12.12;76.26;101159.83;105569;1264;72978;-79
2023/10/05 04:23:33;;;;;;;;;;;;;;;12.11;76.25;101157.35;105436;1261;125060;-79
2023/10/05 04:26:01;;;;;;;;;;;;;;;12.11;76.33;101151.38;105608;1262;61269;-79
2023/10/05 04:28:34;;;;;;;;;;;;;;;12.12;76.33;101148.73;105535;1262;74705;-80
2023/10/05 04:31:01;;;;;;;;;;;;;;;12.10;76.22;101142.71;105494;1262;126578;-81
2023/10/05 04:33:29;;;;;;;;;;;;;;;12.08;76.24;101134.58;105700;1264;72748;-84
2023/10/05 04:35:56;;;;;;;;;;;;;;;12.05;76.26;101135.73;106226;1259;125708;-88
2023/10/05 04:38:25;;;;;;;;;;;;;;;12.01;76.31;101131.26;106427;1263;61285;-84
2023/10/05 04:40:51;;;;;;;;;;;;;;;12.01;76.33;101123.49;106351;1259;73811;-84
2023/10/05 04:43:20;;;;;;;;;;;;;;;12.01;76.59;101123.34;106090;1259;125957;-85
2023/10/05 04:45:47;;;;;;;;;;;;;;;12.03;76.58;101119.66;106522;1260;72761;-77
2023/10/05 04:48:13;;;;;;;;;;;;;;;12.03;76.47;101116.50;106325;1259;125692;-80
2023/10/05 04:50:43;;;;;;;;;;;;;;;12.03;76.54;101112.81;106239;1259;61259;-79
2023/10/05 04:53:11;;;;;;;;;;;;;;;12.03;76.62;101107.55;106197;1265;73452;-78
2023/10/05 04:55:42;;;;;;;;;;;;;;;12.05;76.61;101107.23;106357;1259;131182;-75
2023/10/05 04:58:22;;;;;;;;;;;;;;;12.06;76.56;101105.50;105680;1263;71471;-76
2023/10/05 05:01:14;;;;;;;;;;;;;;;12.08;76.58;101101.32;105890;1259;125429;-79
2023/10/05 05:03:55;;;;;;;;;;;;;;;12.10;76.65;101097.68;106466;1259;61247;-78
2023/10/05 05:06:25;;;;;;;;;;;;;;;12.11;76.56;101098.06;106108;1259;125170;-79
2023/10/05 05:08:53;;;;;;;;;;;;;;;12.10;76.54;101093.99;106185;1265;66311;-83
2023/10/05 05:11:20;;;;;;;;;;;;;;;12.10;76.53;101090.99;106555;1259;125849;-79
2023/10/05 05:13:47;;;;;;;;;;;;;;;12.09;76.54;101085.70;106747;1265;61634;-83
2023/10/05 05:16:17;;;;;;;;;;;;;;;12.10;76.50;101081.33;106675;1259;61254;-83
2023/10/05 05:18:44;;;;;;;;;;;;;;;12.10;76.45;101074.27;106516;1259;132789;-83
2023/10/05 05:21:11;;;;;;;;;;;;;;;12.09;76.38;101074.27;106432;1259;66229;-84
2023/10/05 05:23:39;;;;;;;;;;;;;;;12.09;76.35;101072.50;106449;1259;126343;-80
2023/10/05 05:26:09;;;;;;;;;;;;;;;12.11;76.45;101069.73;106439;1260;61302;-80
2023/10/05 05:28:37;;;;;;;;;;;;;;;12.11;76.48;101062.34;106441;1259;61143;-79
2023/10/05 05:31:24;;;;;;;;;;;;;;;12.10;76.46;101060.04;106202;1260;125275;-80
2023/10/05 05:33:51;;;;;;;;;;;;;;;12.10;76.43;101054.75;106252;1262;64832;-80
2023/10/05 05:36:18;;;;;;;;;;;;;;;12.11;76.48;101049.86;106115;1259;126135;-80
2023/10/05 05:38:47;;;;;;;;;;;;;;;12.13;76.45;101044.27;106347;1259;59932;-81
2023/10/05 05:41:19;;;;;;;;;;;;;;;12.15;76.44;101044.51;106513;1263;61187;-80
2023/10/05 05:43:46;;;;;;;;;;;;;;;12.18;76.39;101041.25;106375;1263;72821;-80
2023/10/05 05:46:13;;;;;;;;;;;;;;;12.20;76.48;101032.13;106201;1265;64788;-81
2023/10/05 05:48:43;;;;;;;;;;;;;;;12.23;76.39;101030.45;106102;1259;125116;-81
2023/10/05 05:51:23;;;;;;;;;;;;;;;12.27;76.39;101025.77;106520;1259;61324;-81
2023/10/05 05:53:52;;;;;;;;;;;;;;;12.30;76.42;101017.39;106442;1260;125184;-81
2023/10/05 05:56:19;;;;;;;;;;;;;;;12.34;76.31;101021.71;106295;1260;73337;-81
2023/10/05 05:58:45;;;;;;;;;;;;;;;12.39;76.29;101017.06;106382;1260;65689;-81
2023/10/05 06:01:16;;;;;;;;;;;;;;;12.41;76.21;101012.19;106262;1262;124956;-81
2023/10/05 06:03:44;;;;;;;;;;;;;;;12.46;76.15;101012.81;106214;1259;61164;-81
2023/10/05 06:06:12;;;;;;;;;;;;;;;12.49;76.16;101006.20;106168;1265;124978;-81
2023/10/05 06:08:40;;;;;;;;;;;;;;;12.52;76.06;101008.55;106295;1262;74522;-81
2023/10/05 06:11:08;;;;;;;;;;;;;;;12.54;75.89;101012.11;106283;1264;66099;-81
2023/10/05 06:13:36;;;;;;;;;;;;;;;12.58;75.89;101017.48;106192;1263;124994;-81
2023/10/05 06:16:09;;;;;;;;;;;;;;;12.65;75.89;101017.42;106333;1259;60904;-81
2023/10/05 06:18:36;;;;;;;;;;;;;;;12.68;75.72;101013.64;106326;1259;124975;-81
2023/10/05 06:21:04;;;;;;;;;;;;;;;12.72;75.78;101010.90;106318;1259;74788;-80
2023/10/05 06:23:34;;;;;;;;;;;;;;;12.77;75.69;101007.11;106190;1262;125258;-81
2023/10/05 06:26:02;;;;;;;;;;;;;;;12.83;75.66;101004.08;106102;1259;71493;-80
2023/10/05 06:28:32;;;;;;;;;;;;;;;12.90;75.64;101009.67;105971;1265;61379;-80
2023/10/05 06:30:59;;;;;;;;;;;;;;;12.98;75.49;101016.87;106038;1262;125916;-81
2023/10/05 06:33:25;;;;;;;;;;;;;;;13.08;75.38;101014.05;106132;1260;73821;-80
2023/10/05 06:35:52;;;;;;;;;;;;;;;13.14;75.16;101013.30;106180;1259;125216;-80
2023/10/05 06:38:19;;;;;;;;;;;;;;;13.18;75.04;101014.25;106134;1262;71511;-80
2023/10/05 06:40:46;;;;;;;;;;;;;;;13.22;75.01;101016.45;106116;1266;61445;-80
2023/10/05 06:43:15;;;;;;;;;;;;;;;13.26;74.94;101015.47;106112;1261;124455;-81
2023/10/05 06:45:45;;;;;;;;;;;;;;;13.31;74.83;101013.98;106332;1260;74697;-82
2023/10/05 06:48:14;;;;;;;;;;;;;;;13.36;74.66;101011.45;106108;1260;126081;-81
2023/10/05 06:50:43;;;;;;;;;;;;;;;13.40;74.52;101005.86;106272;1263;72030;-80
2023/10/05 06:53:11;;;;;;;;;;;;;;;13.42;74.52;101003.25;106289;1259;61376;-84
2023/10/05 06:55:38;;;;;;;;;;;;;;;13.48;74.51;100998.59;106165;1259;124837;-85
2023/10/05 06:58:07;;;;;;;;;;;;;;;13.56;74.43;100995.39;106315;1263;72631;-85
2023/10/05 07:00:34;;;;;;;;;;;;;;;13.62;74.15;100993.01;106149;1259;125049;-84
2023/10/05 07:03:06;;;;;;;;;;;;;;;13.67;74.09;100996.63;106067;1265;72777;-83
2023/10/05 07:05:33;;;;;;;;;;;;;;;13.69;74.04;100994.02;106014;1259;125106;-83
2023/10/05 07:08:00;;;;;;;;;;;;;;;13.71;73.79;100997.73;106140;1259;61305;-83
2023/10/05 07:10:27;;;;;;;;;;;;;;;13.72;73.76;101001.83;106221;1260;73158;-83
2023/10/05 07:12:54;;;;;;;;;;;;;;;13.74;73.67;100998.67;106106;1264;124966;-83
2023/10/05 07:15:23;;;;;;;;;;;;;;;13.77;73.66;101004.54;106019;1261;72828;-83
2023/10/05 07:17:50;;;;;;;;;;;;;;;13.81;73.60;100994.36;106074;1259;125265;-83
2023/10/05 07:20:17;;;;;;;;;;;;;;;13.78;73.41;100988.15;106251;1259;61287;-83
2023/10/05 07:22:44;;;;;;;;;;;;;;;13.75;73.41;100979.82;106274;1259;74708;-83
2023/10/05 07:25:11;;;;;;;;;;;;;;;13.74;73.35;100987.73;106136;1264;124429;-84
2023/10/05 07:27:38;;;;;;;;;;;;;;;13.74;73.38;100980.67;106224;1259;72762;-83
2023/10/05 07:30:05;;;;;;;;;;;;;;;13.77;73.39;100974.39;106112;1260;124321;-83
2023/10/05 07:32:34;;;;;;;;;;;;;;;13.81;73.41;100976.73;105975;1260;59342;-83
2023/10/05 07:35:01;;;;;;;;;;;;;;;13.88;73.61;100976.49;106008;1259;74452;-83
2023/10/05 07:37:27;;;;;;;;;;;;;;;13.90;73.51;100977.75;106063;1262;124404;-85
2023/10/05 07:39:55;;;;;;;;;;;;;;;13.87;73.58;100975.77;105963;1261;72860;-84
2023/10/05 07:42:22;;;;;;;;;;;;;;;13.86;73.55;100970.10;105902;1260;125649;-82
2023/10/05 07:44:49;;;;;;;;;;;;;;;13.85;73.62;100963.73;106084;1264;61303;-82
2023/10/05 07:47:16;;;;;;;;;;;;;;;13.85;73.71;100966.57;106187;1262;73544;-83
2023/10/05 07:49:43;;;;;;;;;;;;;;;13.85;73.70;100970.64;106167;1262;124839;-83
2023/10/05 07:52:10;;;;;;;;;;;;;;;13.87;73.64;100972.23;106162;1262;72739;-83
2023/10/05 07:54:38;;;;;;;;;;;;;;;13.86;73.69;100972.92;105970;1263;124981;-83
2023/10/05 07:57:07;;;;;;;;;;;;;;;13.83;73.66;100968.83;106085;1261;60366;-83
2023/10/05 07:59:35;;;;;;;;;;;;;;;13.78;73.51;100968.59;106019;1261;127469;-83
2023/10/05 08:02:02;;;;;;;;;;;;;;;13.75;73.68;100968.88;105976;1262;65097;-83
2023/10/05 08:04:28;;;;;;;;;;;;;;;13.77;73.98;100966.98;106223;1261;72688;-83
2023/10/05 08:06:55;;;;;;;;;;;;;;;13.79;73.99;100968.95;105963;1265;125292;-83
2023/10/05 08:09:21;;;;;;;;;;;;;;;13.80;74.27;100965.09;106152;1261;61348;-83
2023/10/05 08:11:50;;;;;;;;;;;;;;;13.83;74.30;100963.54;106138;1262;125075;-83
2023/10/05 08:14:17;;;;;;;;;;;;;;;13.88;74.44;100966.61;106219;1264;66367;-83
2023/10/05 08:16:45;;;;;;;;;;;;;;;13.96;74.69;100967.62;106147;1259;72758;-83
2023/10/05 08:19:12;;;;;;;;;;;;;;;14.06;74.58;100968.11;106018;1264;124911;-83
2023/10/05 08:21:41;;;;;;;;;;;;;;;14.12;74.59;100969.60;106124;1259;61273;-83
2023/10/05 08:24:07;;;;;;;;;;;;;;;14.12;74.52;100972.07;106064;1265;124357;-83
2023/10/05 08:26:34;;;;;;;;;;;;;;;14.19;74.63;100971.12;106259;1263;66272;-83
2023/10/05 08:29:01;;;;;;;;;;;;;;;14.35;74.73;100974.50;106070;1262;72469;-82
2023/10/05 08:31:28;;;;;;;;;;;;;;;14.54;74.71;100972.45;105965;1261;124307;-82
2023/10/05 08:33:55;;;;;;;;;;;;;;;14.69;74.47;100975.48;106212;1259;61250;-83
2023/10/05 08:36:21;;;;;;;;;;;;;;;14.78;74.17;100983.36;106233;1259;124594;-82
2023/10/05 08:38:48;;;;;;;;;;;;;;;14.87;74.20;100977.98;106161;1260;64368;-83
2023/10/05 08:41:16;;;;;;;;;;;;;;;15.03;74.10;100972.84;106288;1259;72788;-83
2023/10/05 08:43:46;;;;;;;;;;;;;;;15.16;73.75;100971.20;106192;1259;125140;-82
2023/10/05 08:46:14;;;;;;;;;;;;;;;15.28;73.54;100966.55;106077;1260;61299;-85
2023/10/05 08:48:41;;;;;;;;;;;;;;;15.37;73.49;100952.84;106137;1260;125154;-85
2023/10/05 08:51:10;;;;;;;;;;;;;;;15.44;73.36;100960.69;106057;1260;66114;-84
2023/10/05 08:53:44;;;;;;;;;;;;;;;15.50;73.17;100966.56;105969;1263;125097;-84
2023/10/05 08:56:15;;;;;;;;;;;;;;;15.47;72.77;100973.09;106217;1259;61298;-84
2023/10/05 08:58:42;;;;;;;;;;;;;;;15.42;72.67;100972.86;106184;1259;61118;-82
2023/10/05 09:01:39;;;;;;;;;;;;;;;15.41;72.77;100980.29;106133;1264;124186;-83
2023/10/05 09:06:48;;;;;;;;;;;;;;;15.56;72.76;100974.22;106045;1260;124466;-84
2023/10/05 09:09:15;;;;;;;;;;;;;;;15.71;72.54;100976.48;106214;1263;61290;-83
2023/10/05 09:11:42;;;;;;;;;;;;;;;15.81;72.41;100973.20;105966;1269;124781;-82
2023/10/05 09:14:20;;;;;;;;;;;;;;;15.81;72.17;100974.80;106163;1260;73425;-82
2023/10/05 09:16:47;;;;;;;;;;;;;;;15.82;72.10;100976.58;106087;1259;64411;-82
2023/10/05 09:19:17;;;;;;;;;;;;;;;15.86;72.08;100975.38;105954;1264;208570;-82
2023/10/05 09:21:45;;;;;;;;;;;;;;;15.84;71.78;100971.10;106218;1262;61410;-83
2023/10/05 09:24:25;;;;;;;;;;;;;;;15.72;71.51;100973.13;106032;1261;125138;-83
2023/10/05 09:26:55;;;;;;;;;;;;;;;15.59;71.48;100967.70;106179;1265;73469;-82
2023/10/05 09:29:29;;;;;;;;;;;;;;;15.51;71.62;100963.92;105869;1264;124781;-82
2023/10/05 09:31:56;;;;;;;;;;;;;;;15.48;71.68;100967.61;106078;1263;71495;-82
2023/10/05 09:34:36;;;;;;;;;;;;;;;15.49;71.79;100965.15;106030;1265;61365;-83
2023/10/05 09:37:05;;;;;;;;;;;;;;;15.47;71.60;100961.41;106070;1263;124255;-82
2023/10/05 09:39:33;;;;;;;;;;;;;;;15.35;71.34;100966.79;106033;1273;73829;-84
2023/10/05 09:42:01;;;;;;;;;;;;;;;15.29;71.59;100968.33;106089;1260;125379;-84
2023/10/05 09:44:30;;;;;;;;;;;;;;;15.29;71.73;100968.86;106192;1258;72791;-85
2023/10/05 09:46:57;;;;;;;;;;;;;;;15.30;71.69;100969.40;106330;1259;61274;-82
2023/10/05 09:49:23;;;;;;;;;;;;;;;15.26;71.68;100964.05;106121;1259;124324;-85
2023/10/05 09:51:50;;;;;;;;;;;;;;;15.20;71.47;100970.36;106052;1265;73981;-82
2023/10/05 09:54:19;;;;;;;;;;;;;;;15.11;71.64;100969.39;106168;1263;124670;-80
2023/10/05 09:56:47;;;;;;;;;;;;;;;15.00;71.57;100983.59;106294;1265;72365;-81
2023/10/05 09:59:15;;;;;;;;;;;;;;;14.91;71.72;101005.23;106031;1260;61533;-82
2023/10/05 10:01:43;;;;;;;;;;;;;;;14.83;71.77;101013.46;105912;1265;124790;-83
2023/10/05 10:04:09;;;;;;;;;;;;;;;14.76;72.01;101005.95;106323;1261;74702;-83
2023/10/05 10:06:37;;;;;;;;;;;;;;;14.75;72.14;100998.69;106029;1265;125353;-81
2023/10/05 10:09:10;;;;;;;;;;;;;;;14.76;72.32;101003.99;106245;1265;72706;-81
2023/10/05 10:11:37;;;;;;;;;;;;;;;14.73;72.41;100995.49;106083;1265;125403;-81
2023/10/05 10:14:05;;;;;;;;;;;;;;;14.73;72.50;100996.55;106300;1263;61303;-83
2023/10/05 10:16:32;;;;;;;;;;;;;;;14.72;72.65;100998.48;106242;1260;73432;-82
2023/10/05 10:19:04;;;;;;;;;;;;;;;14.73;72.82;101003.63;106073;1265;125456;-82
2023/10/05 10:21:42;;;;;;;;;;;;;;;14.76;72.88;101003.65;106239;1263;71209;-82
2023/10/05 10:24:14;;;;;;;;;;;;;;;14.74;72.79;101014.23;106124;1259;124524;-82
2023/10/05 10:26:52;;;;;;;;;;;;;;;14.65;72.66;101009.16;106365;1264;61323;-82
2023/10/05 10:29:22;;;;;;;;;;;;;;;14.56;72.76;101001.80;106292;1261;73219;-81
2023/10/05 10:32:07;;;;;;;;;;;;;;;14.50;72.95;100999.59;106304;1264;66050;-80
2023/10/05 10:34:43;;;;;;;;;;;;;;;14.48;73.20;100996.75;106100;1264;71457;-80
2023/10/05 10:37:10;;;;;;;;;;;;;;;14.50;73.36;100987.59;106192;1263;124293;-80
2023/10/05 10:39:37;;;;;;;;;;;;;;;14.58;73.40;100987.89;106353;1259;61247;-80
2023/10/05 10:42:07;;;;;;;;;;;;;;;14.69;73.34;100987.49;106103;1266;125410;-80
2023/10/05 10:47:39;;;;;;;;;;;;;;;14.96;72.81;100995.92;105618;1261;125465;-81
2023/10/05 10:50:15;;;;;;;;;;;;;;;15.04;72.33;100995.13;106357;1263;61359;-83
2023/10/05 10:52:45;;;;;;;;;;;;;;;15.20;72.45;100982.92;106190;1265;61263;-80
2023/10/05 10:55:14;;;;;;;;;;;;;;;15.36;72.15;100985.90;106274;1259;124939;-80
2023/10/05 10:57:45;;;;;;;;;;;;;;;15.47;71.63;100982.46;106294;1263;64802;-81
2023/10/05 11:02:57;;;;;;;;;;;;;;;15.65;70.93;100982.59;106159;1265;59642;-81
2023/10/05 11:05:40;;;;;;;;;;;;;;;15.76;70.93;100985.73;106226;1264;125122;-81
2023/10/05 11:08:07;;;;;;;;;;;;;;;15.95;70.81;100986.23;106357;1259;74810;-81
2023/10/05 11:10:33;;;;;;;;;;;;;;;16.18;70.84;100986.90;106328;1263;66332;-81
2023/10/05 11:13:18;;;;;;;;;;;;;;;16.32;70.41;100982.00;106309;1264;124230;-81
2023/10/05 11:15:57;;;;;;;;;;;;;;;16.40;70.04;100977.62;106422;1264;61308;-81
2023/10/05 11:18:26;;;;;;;;;;;;;;;16.46;69.76;100988.28;106123;1263;124416;-81
2023/10/05 11:20:52;;;;;;;;;;;;;;;16.48;69.49;100985.46;106353;1261;74779;-81
2023/10/05 11:23:25;;;;;;;;;;;;;;;16.48;69.19;100991.48;106316;1263;66120;-83
2023/10/05 11:26:13;;;;;;;;;;;;;;;16.44;68.94;100993.77;106161;1266;71780;-83
2023/10/05 11:28:39;;;;;;;;;;;;;;;16.40;68.62;100993.21;106258;1261;61166;-83
2023/10/05 11:31:06;;;;;;;;;;;;;;;16.54;68.90;100997.00;106137;1261;124598;-83
2023/10/05 11:33:35;;;;;;;;;;;;;;;16.86;69.13;100991.45;106148;1267;74483;-81
2023/10/05 11:36:17;;;;;;;;;;;;;;;17.21;68.61;100996.52;106094;1265;125305;-81
2023/10/05 11:38:43;;;;;;;;;;;;;;;17.50;68.09;100990.86;106174;1261;72709;-83
2023/10/05 11:41:16;;;;;;;;;;;;;;;17.72;67.38;100992.99;106133;1260;61249;-82
2023/10/05 11:43:44;;;;;;;;;;;;;;;17.81;66.62;100992.81;106145;1263;124348;-81
2023/10/05 11:46:29;;;;;;;;;;;;;;;17.87;66.52;100993.38;106216;1263;72634;-81
2023/10/05 11:48:56;;;;;;;;;;;;;;;17.91;66.00;100998.71;106183;1260;124408;-83
2023/10/05 11:51:45;;;;;;;;;;;;;;;17.86;65.15;101004.73;106179;1261;72736;-85
2023/10/05 11:54:15;;;;;;;;;;;;;;;17.72;64.72;101003.83;106038;1261;124623;-83
2023/10/05 11:56:41;;;;;;;;;;;;;;;17.54;64.36;101005.60;106254;1263;61268;-82
2023/10/05 11:59:10;;;;;;;;;;;;;;;17.36;64.12;101009.84;106233;1266;74906;-83
2023/10/05 12:01:44;;;;;;;;;;;;;;;17.21;64.07;101015.84;106134;1261;124361;-83
2023/10/05 12:04:11;;;;;;;;;;;;;;;17.10;64.07;101019.38;106224;1265;72555;-83
2023/10/05 12:06:39;;;;;;;;;;;;;;;17.00;63.93;101010.65;106108;1260;124252;-83
2023/10/05 12:09:09;;;;;;;;;;;;;;;16.90;63.98;101007.79;106263;1260;61232;-83
2023/10/05 12:11:38;;;;;;;;;;;;;;;16.87;64.12;101012.04;106011;1261;124453;-82
2023/10/05 12:14:04;;;;;;;;;;;;;;;16.88;64.13;101012.75;106122;1265;65989;-83
2023/10/05 12:16:34;;;;;;;;;;;;;;;16.92;64.14;101017.19;106131;1265;72605;-83
2023/10/05 12:19:13;;;;;;;;;;;;;;;17.09;64.25;101016.00;106150;1260;124235;-83
2023/10/05 12:21:41;;;;;;;;;;;;;;;17.40;64.25;101017.48;106169;1262;61324;-83
2023/10/05 12:24:10;;;;;;;;;;;;;;;17.53;63.51;101018.55;106330;1261;124446;-82
2023/10/05 12:26:42;;;;;;;;;;;;;;;17.54;63.12;101010.39;106189;1260;65043;-85
2023/10/05 12:29:12;;;;;;;;;;;;;;;17.54;62.98;101013.41;106039;1260;72832;-83
2023/10/05 12:31:40;;;;;;;;;;;;;;;17.63;62.99;101015.72;106046;1260;124320;-83
2023/10/05 12:34:09;;;;;;;;;;;;;;;17.71;62.62;101020.15;106168;1261;61236;-83
2023/10/05 12:36:35;;;;;;;;;;;;;;;17.78;62.61;101024.77;105986;1264;124417;-83
2023/10/05 12:39:02;;;;;;;;;;;;;;;17.76;62.18;101026.73;106138;1260;65966;-83
2023/10/05 12:41:37;;;;;;;;;;;;;;;17.73;62.00;101034.00;106105;1260;124430;-83
2023/10/05 12:44:09;;;;;;;;;;;;;;;17.64;61.53;101033.64;106233;1264;61304;-82
2023/10/05 12:46:39;;;;;;;;;;;;;;;17.47;61.14;101034.70;106291;1263;61244;-81
2023/10/05 12:49:09;;;;;;;;;;;;;;;17.44;61.56;101030.96;105990;1261;124678;-81